sensor_id;sensor_type;location;lat;lon;timestamp;P1;durP1;ratioP1;P2;durP2;ratioP2
15293;SDS011;7748;52.474;13.454;2022-10-18T00:01:45;15.60;;;12.13;;
15293;SDS011;7748;52.474;13.454;2022-10-18T00:04:13;16.03;;;11.97;;
15293;SDS011;7748;52.474;13.454;2022-10-18T00:06:41;19.90;;;11.13;;
15293;SDS011;7748;52.474;13.454;2022-10-18T00:09:09;19.00;;;12.30;;
15293;SDS011;7748;52.474;13.454;2022-10-18T00:11:37;18.63;;;11.50;;
15293;SDS011;7748;52.474;13.454;2022-10-18T00:14:05;16.10;;;11.23;;
15293;SDS011;7748;52.474;13.454;2022-10-18T00:16:35;16.97;;;11.83;;
15293;SDS011;7748;52.474;13.454;2022-10-18T00:19:02;18.53;;;12.00;;
15293;SDS011;7748;52.474;13.454;2022-10-18T00:21:30;21.90;;;12.13;;
15293;SDS011;7748;52.474;13.454;2022-10-18T00:23:58;15.03;;;11.13;;
15293;SDS011;7748;52.474;13.454;2022-10-18T00:26:27;15.87;;;11.53;;
15293;SDS011;7748;52.474;13.454;2022-10-18T00:28:56;20.50;;;11.47;;
15293;SDS011;7748;52.474;13.454;2022-10-18T00:31:26;15.77;;;11.60;;
15293;SDS011;7748;52.474;13.454;2022-10-18T00:33:57;19.80;;;12.00;;
15293;SDS011;7748;52.474;13.454;2022-10-18T00:36:28;16.40;;;11.33;;
15293;SDS011;7748;52.474;13.454;2022-10-18T00:38:57;21.70;;;11.43;;
15293;SDS011;7748;52.474;13.454;2022-10-18T00:41:26;18.03;;;10.83;;
15293;SDS011;7748;52.474;13.454;2022-10-18T00:43:57;16.63;;;11.00;;
15293;SDS011;7748;52.474;13.454;2022-10-18T00:46:27;14.60;;;10.13;;
15293;SDS011;7748;52.474;13.454;2022-10-18T00:48:58;17.33;;;10.90;;
15293;SDS011;7748;52.474;13.454;2022-10-18T00:51:30;17.03;;;11.10;;
15293;SDS011;7748;52.474;13.454;2022-10-18T00:54:01;25.13;;;11.23;;
15293;SDS011;7748;52.474;13.454;2022-10-18T00:56:29;13.60;;;9.63;;
15293;SDS011;7748;52.474;13.454;2022-10-18T00:58:59;13.17;;;9.03;;
15293;SDS011;7748;52.474;13.454;2022-10-18T01:01:28;13.90;;;10.20;;
15293;SDS011;7748;52.474;13.454;2022-10-18T01:03:57;14.17;;;9.90;;
15293;SDS011;7748;52.474;13.454;2022-10-18T01:06:25;11.97;;;8.17;;
15293;SDS011;7748;52.474;13.454;2022-10-18T01:09:01;14.10;;;10.10;;
15293;SDS011;7748;52.474;13.454;2022-10-18T01:11:44;21.80;;;10.00;;
15293;SDS011;7748;52.474;13.454;2022-10-18T01:14:33;16.90;;;8.33;;
15293;SDS011;7748;52.474;13.454;2022-10-18T01:17:10;11.10;;;7.90;;
15293;SDS011;7748;52.474;13.454;2022-10-18T01:22:49;13.57;;;8.37;;
15293;SDS011;7748;52.474;13.454;2022-10-18T01:25:26;10.80;;;8.53;;
15293;SDS011;7748;52.474;13.454;2022-10-18T01:28:07;10.10;;;8.10;;
15293;SDS011;7748;52.474;13.454;2022-10-18T01:30:46;13.30;;;9.00;;
15293;SDS011;7748;52.474;13.454;2022-10-18T01:33:24;11.90;;;8.20;;
15293;SDS011;7748;52.474;13.454;2022-10-18T01:35:58;10.07;;;7.70;;
15293;SDS011;7748;52.474;13.454;2022-10-18T01:38:30;15.67;;;8.90;;
15293;SDS011;7748;52.474;13.454;2022-10-18T01:40:59;15.07;;;9.23;;
15293;SDS011;7748;52.474;13.454;2022-10-18T01:43:30;16.93;;;10.00;;
15293;SDS011;7748;52.474;13.454;2022-10-18T01:46:01;9.50;;;8.27;;
15293;SDS011;7748;52.474;13.454;2022-10-18T01:48:30;11.83;;;8.90;;
15293;SDS011;7748;52.474;13.454;2022-10-18T01:50:59;13.67;;;9.30;;
15293;SDS011;7748;52.474;13.454;2022-10-18T01:53:28;11.50;;;8.63;;
15293;SDS011;7748;52.474;13.454;2022-10-18T01:56:11;10.03;;;9.03;;
15293;SDS011;7748;52.474;13.454;2022-10-18T01:58:54;12.67;;;10.00;;
15293;SDS011;7748;52.474;13.454;2022-10-18T02:01:40;13.07;;;9.70;;
15293;SDS011;7748;52.474;13.454;2022-10-18T02:04:21;16.37;;;9.43;;
15293;SDS011;7748;52.474;13.454;2022-10-18T02:06:56;14.00;;;9.93;;
15293;SDS011;7748;52.474;13.454;2022-10-18T02:09:31;15.70;;;9.70;;
15293;SDS011;7748;52.474;13.454;2022-10-18T02:12:05;12.60;;;10.00;;
15293;SDS011;7748;52.474;13.454;2022-10-18T02:14:36;16.73;;;10.47;;
15293;SDS011;7748;52.474;13.454;2022-10-18T02:17:07;15.00;;;10.57;;
15293;SDS011;7748;52.474;13.454;2022-10-18T02:19:39;13.27;;;9.63;;
15293;SDS011;7748;52.474;13.454;2022-10-18T02:22:16;12.63;;;9.67;;
15293;SDS011;7748;52.474;13.454;2022-10-18T02:24:47;14.00;;;10.47;;
15293;SDS011;7748;52.474;13.454;2022-10-18T02:27:19;13.50;;;9.40;;
15293;SDS011;7748;52.474;13.454;2022-10-18T02:29:47;12.27;;;9.30;;
15293;SDS011;7748;52.474;13.454;2022-10-18T02:32:19;13.03;;;9.27;;
15293;SDS011;7748;52.474;13.454;2022-10-18T02:34:55;12.90;;;9.67;;
15293;SDS011;7748;52.474;13.454;2022-10-18T02:37:27;12.07;;;9.63;;
15293;SDS011;7748;52.474;13.454;2022-10-18T02:40:00;14.07;;;10.33;;
15293;SDS011;7748;52.474;13.454;2022-10-18T02:42:32;13.53;;;10.60;;
15293;SDS011;7748;52.474;13.454;2022-10-18T02:45:01;13.33;;;9.57;;
15293;SDS011;7748;52.474;13.454;2022-10-18T02:47:31;10.97;;;9.17;;
15293;SDS011;7748;52.474;13.454;2022-10-18T02:49:59;16.47;;;10.73;;
15293;SDS011;7748;52.474;13.454;2022-10-18T02:52:27;11.70;;;9.60;;
15293;SDS011;7748;52.474;13.454;2022-10-18T02:54:55;15.63;;;9.17;;
15293;SDS011;7748;52.474;13.454;2022-10-18T02:57:22;15.03;;;10.00;;
15293;SDS011;7748;52.474;13.454;2022-10-18T02:59:50;13.50;;;9.53;;
15293;SDS011;7748;52.474;13.454;2022-10-18T03:02:18;12.67;;;9.30;;
15293;SDS011;7748;52.474;13.454;2022-10-18T03:04:47;9.77;;;8.77;;
15293;SDS011;7748;52.474;13.454;2022-10-18T03:07:15;11.57;;;9.20;;
15293;SDS011;7748;52.474;13.454;2022-10-18T03:09:43;9.57;;;8.57;;
15293;SDS011;7748;52.474;13.454;2022-10-18T03:12:11;14.83;;;9.43;;
15293;SDS011;7748;52.474;13.454;2022-10-18T03:14:39;10.73;;;9.27;;
15293;SDS011;7748;52.474;13.454;2022-10-18T03:17:07;13.30;;;9.83;;
15293;SDS011;7748;52.474;13.454;2022-10-18T03:19:35;11.83;;;9.03;;
15293;SDS011;7748;52.474;13.454;2022-10-18T03:22:05;12.67;;;9.10;;
15293;SDS011;7748;52.474;13.454;2022-10-18T03:24:32;16.13;;;9.10;;
15293;SDS011;7748;52.474;13.454;2022-10-18T03:27:00;11.47;;;9.27;;
15293;SDS011;7748;52.474;13.454;2022-10-18T03:29:28;12.73;;;10.43;;
15293;SDS011;7748;52.474;13.454;2022-10-18T03:31:56;14.30;;;10.33;;
15293;SDS011;7748;52.474;13.454;2022-10-18T03:34:24;19.63;;;10.43;;
15293;SDS011;7748;52.474;13.454;2022-10-18T03:36:52;13.07;;;11.17;;
15293;SDS011;7748;52.474;13.454;2022-10-18T03:39:21;14.10;;;10.90;;
15293;SDS011;7748;52.474;13.454;2022-10-18T03:41:49;13.87;;;12.17;;
15293;SDS011;7748;52.474;13.454;2022-10-18T03:44:17;16.17;;;10.77;;
15293;SDS011;7748;52.474;13.454;2022-10-18T03:46:45;15.33;;;11.37;;
15293;SDS011;7748;52.474;13.454;2022-10-18T03:49:13;15.37;;;11.77;;
15293;SDS011;7748;52.474;13.454;2022-10-18T03:51:41;16.60;;;11.10;;
15293;SDS011;7748;52.474;13.454;2022-10-18T03:54:09;18.17;;;12.77;;
15293;SDS011;7748;52.474;13.454;2022-10-18T03:56:38;16.80;;;13.17;;
15293;SDS011;7748;52.474;13.454;2022-10-18T03:59:06;16.10;;;11.90;;
15293;SDS011;7748;52.474;13.454;2022-10-18T04:01:33;17.97;;;12.30;;
15293;SDS011;7748;52.474;13.454;2022-10-18T04:04:02;18.20;;;12.50;;
15293;SDS011;7748;52.474;13.454;2022-10-18T04:06:30;14.47;;;12.20;;
15293;SDS011;7748;52.474;13.454;2022-10-18T04:08:58;18.50;;;11.83;;
15293;SDS011;7748;52.474;13.454;2022-10-18T04:11:25;15.97;;;11.83;;
15293;SDS011;7748;52.474;13.454;2022-10-18T04:13:57;17.50;;;11.33;;
15293;SDS011;7748;52.474;13.454;2022-10-18T04:16:25;18.77;;;12.30;;
15293;SDS011;7748;52.474;13.454;2022-10-18T04:18:53;14.63;;;11.57;;
15293;SDS011;7748;52.474;13.454;2022-10-18T04:21:21;25.30;;;15.13;;
15293;SDS011;7748;52.474;13.454;2022-10-18T04:23:49;17.07;;;13.90;;
15293;SDS011;7748;52.474;13.454;2022-10-18T04:26:17;16.77;;;11.63;;
15293;SDS011;7748;52.474;13.454;2022-10-18T04:28:45;16.20;;;12.50;;
15293;SDS011;7748;52.474;13.454;2022-10-18T04:31:14;19.33;;;12.00;;
15293;SDS011;7748;52.474;13.454;2022-10-18T04:33:42;17.87;;;12.47;;
15293;SDS011;7748;52.474;13.454;2022-10-18T04:36:10;15.20;;;10.93;;
15293;SDS011;7748;52.474;13.454;2022-10-18T04:38:37;12.93;;;10.17;;
15293;SDS011;7748;52.474;13.454;2022-10-18T04:41:05;17.40;;;11.50;;
15293;SDS011;7748;52.474;13.454;2022-10-18T04:43:33;16.43;;;11.27;;
15293;SDS011;7748;52.474;13.454;2022-10-18T04:46:01;11.53;;;9.83;;
15293;SDS011;7748;52.474;13.454;2022-10-18T04:48:33;15.17;;;10.50;;
15293;SDS011;7748;52.474;13.454;2022-10-18T04:51:02;15.63;;;11.53;;
15293;SDS011;7748;52.474;13.454;2022-10-18T04:53:29;13.70;;;10.57;;
15293;SDS011;7748;52.474;13.454;2022-10-18T04:55:57;17.63;;;12.27;;
15293;SDS011;7748;52.474;13.454;2022-10-18T04:58:25;15.77;;;10.70;;
15293;SDS011;7748;52.474;13.454;2022-10-18T05:00:53;28.60;;;15.17;;
15293;SDS011;7748;52.474;13.454;2022-10-18T05:03:21;15.67;;;11.37;;
15293;SDS011;7748;52.474;13.454;2022-10-18T05:05:50;14.63;;;11.53;;
15293;SDS011;7748;52.474;13.454;2022-10-18T05:08:28;14.43;;;11.73;;
15293;SDS011;7748;52.474;13.454;2022-10-18T05:10:58;15.23;;;11.33;;
15293;SDS011;7748;52.474;13.454;2022-10-18T05:13:26;14.90;;;10.97;;
15293;SDS011;7748;52.474;13.454;2022-10-18T05:15:54;18.20;;;11.80;;
15293;SDS011;7748;52.474;13.454;2022-10-18T05:18:24;20.00;;;12.20;;
15293;SDS011;7748;52.474;13.454;2022-10-18T05:20:54;14.93;;;11.83;;
15293;SDS011;7748;52.474;13.454;2022-10-18T05:23:22;15.37;;;11.70;;
15293;SDS011;7748;52.474;13.454;2022-10-18T05:25:50;19.90;;;14.10;;
15293;SDS011;7748;52.474;13.454;2022-10-18T05:28:18;15.97;;;12.23;;
15293;SDS011;7748;52.474;13.454;2022-10-18T05:31:05;20.07;;;10.73;;
15293;SDS011;7748;52.474;13.454;2022-10-18T05:33:34;15.63;;;11.00;;
15293;SDS011;7748;52.474;13.454;2022-10-18T05:36:04;11.93;;;10.57;;
15293;SDS011;7748;52.474;13.454;2022-10-18T05:38:32;18.60;;;12.13;;
15293;SDS011;7748;52.474;13.454;2022-10-18T05:41:03;14.17;;;10.67;;
15293;SDS011;7748;52.474;13.454;2022-10-18T05:43:32;17.70;;;13.17;;
15293;SDS011;7748;52.474;13.454;2022-10-18T05:46:00;14.67;;;12.17;;
15293;SDS011;7748;52.474;13.454;2022-10-18T05:48:28;17.47;;;11.43;;
15293;SDS011;7748;52.474;13.454;2022-10-18T05:50:58;16.90;;;11.80;;
15293;SDS011;7748;52.474;13.454;2022-10-18T05:53:28;17.97;;;12.67;;
15293;SDS011;7748;52.474;13.454;2022-10-18T05:56:02;17.43;;;12.13;;
15293;SDS011;7748;52.474;13.454;2022-10-18T05:58:30;18.27;;;13.70;;
15293;SDS011;7748;52.474;13.454;2022-10-18T06:00:59;16.40;;;12.07;;
15293;SDS011;7748;52.474;13.454;2022-10-18T06:03:28;14.43;;;10.87;;
15293;SDS011;7748;52.474;13.454;2022-10-18T06:05:59;15.47;;;11.70;;
15293;SDS011;7748;52.474;13.454;2022-10-18T06:08:29;15.77;;;11.77;;
15293;SDS011;7748;52.474;13.454;2022-10-18T06:10:57;16.27;;;11.20;;
15293;SDS011;7748;52.474;13.454;2022-10-18T06:13:31;20.33;;;16.20;;
15293;SDS011;7748;52.474;13.454;2022-10-18T06:16:00;16.17;;;11.90;;
15293;SDS011;7748;52.474;13.454;2022-10-18T06:18:27;20.83;;;16.17;;
15293;SDS011;7748;52.474;13.454;2022-10-18T06:20:56;16.90;;;12.77;;
15293;SDS011;7748;52.474;13.454;2022-10-18T06:23:24;17.60;;;12.60;;
15293;SDS011;7748;52.474;13.454;2022-10-18T06:25:58;16.77;;;12.30;;
15293;SDS011;7748;52.474;13.454;2022-10-18T06:28:27;20.13;;;12.67;;
15293;SDS011;7748;52.474;13.454;2022-10-18T06:30:55;14.23;;;11.50;;
15293;SDS011;7748;52.474;13.454;2022-10-18T06:33:24;18.73;;;12.70;;
15293;SDS011;7748;52.474;13.454;2022-10-18T06:35:53;14.07;;;10.83;;
15293;SDS011;7748;52.474;13.454;2022-10-18T06:38:26;17.50;;;12.40;;
15293;SDS011;7748;52.474;13.454;2022-10-18T06:40:55;14.27;;;10.93;;
15293;SDS011;7748;52.474;13.454;2022-10-18T06:43:25;17.53;;;12.60;;
15293;SDS011;7748;52.474;13.454;2022-10-18T06:45:53;19.87;;;12.23;;
15293;SDS011;7748;52.474;13.454;2022-10-18T06:48:23;19.40;;;13.23;;
15293;SDS011;7748;52.474;13.454;2022-10-18T06:50:52;19.40;;;12.87;;
15293;SDS011;7748;52.474;13.454;2022-10-18T06:53:22;20.70;;;13.80;;
15293;SDS011;7748;52.474;13.454;2022-10-18T06:55:52;21.17;;;12.53;;
15293;SDS011;7748;52.474;13.454;2022-10-18T06:58:20;20.93;;;12.60;;
15293;SDS011;7748;52.474;13.454;2022-10-18T07:00:49;23.37;;;12.50;;
15293;SDS011;7748;52.474;13.454;2022-10-18T07:03:17;19.27;;;12.97;;
15293;SDS011;7748;52.474;13.454;2022-10-18T07:05:46;20.33;;;12.93;;
15293;SDS011;7748;52.474;13.454;2022-10-18T07:08:15;18.87;;;13.03;;
15293;SDS011;7748;52.474;13.454;2022-10-18T07:10:49;22.67;;;13.03;;
15293;SDS011;7748;52.474;13.454;2022-10-18T07:13:18;15.83;;;12.50;;
15293;SDS011;7748;52.474;13.454;2022-10-18T07:16:00;16.53;;;12.50;;
15293;SDS011;7748;52.474;13.454;2022-10-18T07:18:31;22.13;;;13.03;;
15293;SDS011;7748;52.474;13.454;2022-10-18T07:21:00;18.37;;;12.93;;
15293;SDS011;7748;52.474;13.454;2022-10-18T07:23:30;21.07;;;14.03;;
15293;SDS011;7748;52.474;13.454;2022-10-18T07:25:59;22.57;;;15.90;;
15293;SDS011;7748;52.474;13.454;2022-10-18T07:28:28;23.57;;;17.60;;
15293;SDS011;7748;52.474;13.454;2022-10-18T07:30:57;23.40;;;17.73;;
15293;SDS011;7748;52.474;13.454;2022-10-18T07:33:33;22.37;;;16.80;;
15293;SDS011;7748;52.474;13.454;2022-10-18T07:36:03;22.30;;;16.37;;
15293;SDS011;7748;52.474;13.454;2022-10-18T07:38:32;22.27;;;15.10;;
15293;SDS011;7748;52.474;13.454;2022-10-18T07:41:02;23.90;;;17.60;;
15293;SDS011;7748;52.474;13.454;2022-10-18T07:43:32;20.07;;;14.30;;
15293;SDS011;7748;52.474;13.454;2022-10-18T07:46:00;22.83;;;14.70;;
15293;SDS011;7748;52.474;13.454;2022-10-18T07:48:31;19.00;;;14.07;;
15293;SDS011;7748;52.474;13.454;2022-10-18T07:51:00;18.23;;;13.73;;
15293;SDS011;7748;52.474;13.454;2022-10-18T07:53:29;20.57;;;13.87;;
15293;SDS011;7748;52.474;13.454;2022-10-18T07:55:57;20.83;;;14.20;;
15293;SDS011;7748;52.474;13.454;2022-10-18T07:58:29;17.80;;;12.20;;
15293;SDS011;7748;52.474;13.454;2022-10-18T08:01:00;15.87;;;12.10;;
15293;SDS011;7748;52.474;13.454;2022-10-18T08:03:29;16.90;;;11.97;;
15293;SDS011;7748;52.474;13.454;2022-10-18T08:06:01;18.17;;;11.87;;
15293;SDS011;7748;52.474;13.454;2022-10-18T08:08:30;14.17;;;11.07;;
15293;SDS011;7748;52.474;13.454;2022-10-18T08:11:00;17.50;;;12.30;;
15293;SDS011;7748;52.474;13.454;2022-10-18T08:13:30;13.90;;;10.77;;
15293;SDS011;7748;52.474;13.454;2022-10-18T08:15:58;20.50;;;11.60;;
15293;SDS011;7748;52.474;13.454;2022-10-18T08:18:27;15.93;;;11.43;;
15293;SDS011;7748;52.474;13.454;2022-10-18T08:20:59;18.17;;;10.90;;
15293;SDS011;7748;52.474;13.454;2022-10-18T08:23:27;16.87;;;9.50;;
15293;SDS011;7748;52.474;13.454;2022-10-18T08:25:56;18.20;;;10.80;;
15293;SDS011;7748;52.474;13.454;2022-10-18T08:28:29;14.10;;;9.60;;
15293;SDS011;7748;52.474;13.454;2022-10-18T08:31:03;14.37;;;9.40;;
15293;SDS011;7748;52.474;13.454;2022-10-18T08:33:31;11.53;;;9.20;;
15293;SDS011;7748;52.474;13.454;2022-10-18T08:36:02;10.77;;;8.17;;
15293;SDS011;7748;52.474;13.454;2022-10-18T08:38:32;10.80;;;7.33;;
15293;SDS011;7748;52.474;13.454;2022-10-18T08:41:05;12.60;;;7.90;;
15293;SDS011;7748;52.474;13.454;2022-10-18T08:43:49;10.43;;;7.17;;
15293;SDS011;7748;52.474;13.454;2022-10-18T08:46:29;14.57;;;8.47;;
15293;SDS011;7748;52.474;13.454;2022-10-18T08:49:00;11.73;;;6.67;;
15293;SDS011;7748;52.474;13.454;2022-10-18T08:51:32;12.93;;;7.63;;
15293;SDS011;7748;52.474;13.454;2022-10-18T08:54:05;10.97;;;7.70;;
15293;SDS011;7748;52.474;13.454;2022-10-18T08:56:53;12.73;;;7.37;;
15293;SDS011;7748;52.474;13.454;2022-10-18T08:59:25;8.60;;;6.70;;
15293;SDS011;7748;52.474;13.454;2022-10-18T09:02:01;12.03;;;6.40;;
15293;SDS011;7748;52.474;13.454;2022-10-18T09:04:37;10.53;;;6.43;;
15293;SDS011;7748;52.474;13.454;2022-10-18T09:07:31;14.13;;;7.27;;
15293;SDS011;7748;52.474;13.454;2022-10-18T09:10:18;10.67;;;5.87;;
15293;SDS011;7748;52.474;13.454;2022-10-18T09:13:05;9.80;;;6.60;;
15293;SDS011;7748;52.474;13.454;2022-10-18T09:15:44;10.50;;;5.97;;
15293;SDS011;7748;52.474;13.454;2022-10-18T09:18:31;11.73;;;7.57;;
15293;SDS011;7748;52.474;13.454;2022-10-18T09:21:13;11.97;;;7.47;;
15293;SDS011;7748;52.474;13.454;2022-10-18T09:23:48;10.63;;;7.47;;
15293;SDS011;7748;52.474;13.454;2022-10-18T09:26:21;10.40;;;7.20;;
15293;SDS011;7748;52.474;13.454;2022-10-18T09:28:54;11.67;;;8.27;;
15293;SDS011;7748;52.474;13.454;2022-10-18T09:31:35;16.20;;;8.03;;
15293;SDS011;7748;52.474;13.454;2022-10-18T09:34:12;12.10;;;8.57;;
15293;SDS011;7748;52.474;13.454;2022-10-18T09:36:44;16.57;;;8.17;;
15293;SDS011;7748;52.474;13.454;2022-10-18T09:39:15;10.13;;;7.47;;
15293;SDS011;7748;52.474;13.454;2022-10-18T09:41:48;13.23;;;9.07;;
15293;SDS011;7748;52.474;13.454;2022-10-18T09:44:20;14.07;;;7.73;;
15293;SDS011;7748;52.474;13.454;2022-10-18T09:46:51;10.83;;;8.40;;
15293;SDS011;7748;52.474;13.454;2022-10-18T09:49:26;11.33;;;7.90;;
15293;SDS011;7748;52.474;13.454;2022-10-18T09:51:57;10.13;;;8.07;;
15293;SDS011;7748;52.474;13.454;2022-10-18T09:54:30;12.77;;;8.37;;
15293;SDS011;7748;52.474;13.454;2022-10-18T09:57:04;11.93;;;9.37;;
15293;SDS011;7748;52.474;13.454;2022-10-18T09:59:37;12.73;;;8.40;;
15293;SDS011;7748;52.474;13.454;2022-10-18T10:02:08;12.50;;;9.30;;
15293;SDS011;7748;52.474;13.454;2022-10-18T10:04:39;15.13;;;9.03;;
15293;SDS011;7748;52.474;13.454;2022-10-18T10:07:08;12.63;;;8.87;;
15293;SDS011;7748;52.474;13.454;2022-10-18T10:09:43;14.93;;;9.37;;
15293;SDS011;7748;52.474;13.454;2022-10-18T10:12:24;13.63;;;9.47;;
15293;SDS011;7748;52.474;13.454;2022-10-18T10:14:54;12.23;;;9.80;;
15293;SDS011;7748;52.474;13.454;2022-10-18T10:17:34;12.47;;;9.07;;
15293;SDS011;7748;52.474;13.454;2022-10-18T10:20:03;15.90;;;9.93;;
15293;SDS011;7748;52.474;13.454;2022-10-18T10:22:41;14.97;;;9.33;;
15293;SDS011;7748;52.474;13.454;2022-10-18T10:25:25;13.37;;;9.43;;
15293;SDS011;7748;52.474;13.454;2022-10-18T10:28:00;10.40;;;8.50;;
15293;SDS011;7748;52.474;13.454;2022-10-18T10:30:31;13.43;;;8.73;;
15293;SDS011;7748;52.474;13.454;2022-10-18T10:33:02;12.93;;;8.27;;
15293;SDS011;7748;52.474;13.454;2022-10-18T10:35:31;26.13;;;14.93;;
15293;SDS011;7748;52.474;13.454;2022-10-18T10:38:22;11.23;;;8.57;;
15293;SDS011;7748;52.474;13.454;2022-10-18T10:40:53;10.80;;;8.20;;
15293;SDS011;7748;52.474;13.454;2022-10-18T10:43:23;13.03;;;9.33;;
15293;SDS011;7748;52.474;13.454;2022-10-18T10:46:05;15.77;;;9.27;;
15293;SDS011;7748;52.474;13.454;2022-10-18T10:48:40;10.60;;;8.50;;
15293;SDS011;7748;52.474;13.454;2022-10-18T10:51:15;16.33;;;9.10;;
15293;SDS011;7748;52.474;13.454;2022-10-18T10:53:47;12.50;;;10.23;;
15293;SDS011;7748;52.474;13.454;2022-10-18T10:56:23;13.53;;;10.23;;
15293;SDS011;7748;52.474;13.454;2022-10-18T10:58:54;13.93;;;9.30;;
15293;SDS011;7748;52.474;13.454;2022-10-18T11:01:28;31.27;;;23.57;;
15293;SDS011;7748;52.474;13.454;2022-10-18T11:03:59;16.33;;;11.30;;
15293;SDS011;7748;52.474;13.454;2022-10-18T11:06:30;16.07;;;10.80;;
15293;SDS011;7748;52.474;13.454;2022-10-18T11:09:04;13.73;;;10.60;;
15293;SDS011;7748;52.474;13.454;2022-10-18T11:11:51;11.57;;;9.50;;
15293;SDS011;7748;52.474;13.454;2022-10-18T11:14:28;12.83;;;10.27;;
15293;SDS011;7748;52.474;13.454;2022-10-18T11:17:02;12.17;;;9.70;;
15293;SDS011;7748;52.474;13.454;2022-10-18T11:19:37;15.03;;;9.57;;
15293;SDS011;7748;52.474;13.454;2022-10-18T11:22:17;16.83;;;12.30;;
15293;SDS011;7748;52.474;13.454;2022-10-18T11:24:48;13.77;;;9.60;;
15293;SDS011;7748;52.474;13.454;2022-10-18T11:27:21;13.77;;;10.07;;
15293;SDS011;7748;52.474;13.454;2022-10-18T11:29:59;13.80;;;9.03;;
15293;SDS011;7748;52.474;13.454;2022-10-18T11:32:46;13.03;;;9.80;;
15293;SDS011;7748;52.474;13.454;2022-10-18T11:35:26;15.10;;;11.87;;
15293;SDS011;7748;52.474;13.454;2022-10-18T11:38:05;12.90;;;10.07;;
15293;SDS011;7748;52.474;13.454;2022-10-18T11:40:57;11.63;;;9.03;;
15293;SDS011;7748;52.474;13.454;2022-10-18T11:43:40;13.27;;;9.53;;
15293;SDS011;7748;52.474;13.454;2022-10-18T11:46:34;9.90;;;8.73;;
15293;SDS011;7748;52.474;13.454;2022-10-18T11:49:15;11.10;;;9.90;;
15293;SDS011;7748;52.474;13.454;2022-10-18T11:51:57;12.63;;;9.10;;
15293;SDS011;7748;52.474;13.454;2022-10-18T11:57:39;13.27;;;9.77;;
15293;SDS011;7748;52.474;13.454;2022-10-18T12:05:57;17.40;;;11.10;;
15293;SDS011;7748;52.474;13.454;2022-10-18T12:08:31;24.00;;;17.33;;
15293;SDS011;7748;52.474;13.454;2022-10-18T12:11:05;12.50;;;9.80;;
15293;SDS011;7748;52.474;13.454;2022-10-18T12:13:42;10.30;;;9.13;;
15293;SDS011;7748;52.474;13.454;2022-10-18T12:16:14;13.90;;;9.70;;
15293;SDS011;7748;52.474;13.454;2022-10-18T12:19:06;24.80;;;16.43;;
15293;SDS011;7748;52.474;13.454;2022-10-18T12:21:50;13.20;;;10.53;;
15293;SDS011;7748;52.474;13.454;2022-10-18T12:24:19;11.80;;;9.10;;
15293;SDS011;7748;52.474;13.454;2022-10-18T12:26:52;12.27;;;9.67;;
15293;SDS011;7748;52.474;13.454;2022-10-18T12:29:28;10.80;;;8.03;;
15293;SDS011;7748;52.474;13.454;2022-10-18T12:32:13;10.93;;;8.03;;
15293;SDS011;7748;52.474;13.454;2022-10-18T12:34:44;11.50;;;8.77;;
15293;SDS011;7748;52.474;13.454;2022-10-18T12:40:12;9.47;;;8.00;;
15293;SDS011;7748;52.474;13.454;2022-10-18T12:42:47;9.27;;;8.13;;
15293;SDS011;7748;52.474;13.454;2022-10-18T12:45:27;11.97;;;9.70;;
15293;SDS011;7748;52.474;13.454;2022-10-18T12:48:00;22.13;;;12.90;;
15293;SDS011;7748;52.474;13.454;2022-10-18T12:50:33;24.23;;;16.13;;
15293;SDS011;7748;52.474;13.454;2022-10-18T12:53:11;31.03;;;17.00;;
15293;SDS011;7748;52.474;13.454;2022-10-18T12:55:45;53.07;;;25.33;;
15293;SDS011;7748;52.474;13.454;2022-10-18T12:58:22;34.37;;;18.40;;
15293;SDS011;7748;52.474;13.454;2022-10-18T13:00:59;26.30;;;16.57;;
15293;SDS011;7748;52.474;13.454;2022-10-18T13:09:29;14.53;;;10.80;;
15293;SDS011;7748;52.474;13.454;2022-10-18T13:12:29;10.90;;;8.77;;
15293;SDS011;7748;52.474;13.454;2022-10-18T13:15:14;9.33;;;8.37;;
15293;SDS011;7748;52.474;13.454;2022-10-18T13:18:00;8.73;;;7.43;;
15293;SDS011;7748;52.474;13.454;2022-10-18T13:20:36;9.37;;;7.83;;
15293;SDS011;7748;52.474;13.454;2022-10-18T13:23:11;11.87;;;8.17;;
15293;SDS011;7748;52.474;13.454;2022-10-18T13:25:56;18.43;;;12.37;;
15293;SDS011;7748;52.474;13.454;2022-10-18T13:28:32;11.67;;;8.40;;
15293;SDS011;7748;52.474;13.454;2022-10-18T13:31:09;11.33;;;8.43;;
15293;SDS011;7748;52.474;13.454;2022-10-18T13:33:45;12.80;;;8.67;;
15293;SDS011;7748;52.474;13.454;2022-10-18T13:36:22;14.33;;;8.77;;
15293;SDS011;7748;52.474;13.454;2022-10-18T13:38:58;11.13;;;9.27;;
15293;SDS011;7748;52.474;13.454;2022-10-18T13:41:29;12.80;;;9.30;;
15293;SDS011;7748;52.474;13.454;2022-10-18T13:53:06;10.17;;;7.70;;
15293;SDS011;7748;52.474;13.454;2022-10-18T13:55:54;9.17;;;7.67;;
15293;SDS011;7748;52.474;13.454;2022-10-18T13:58:33;12.57;;;9.33;;
15293;SDS011;7748;52.474;13.454;2022-10-18T14:01:21;10.57;;;7.43;;
15293;SDS011;7748;52.474;13.454;2022-10-18T14:04:03;10.40;;;8.13;;
15293;SDS011;7748;52.474;13.454;2022-10-18T14:06:47;10.90;;;8.03;;
15293;SDS011;7748;52.474;13.454;2022-10-18T14:09:20;10.57;;;8.17;;
15293;SDS011;7748;52.474;13.454;2022-10-18T14:12:10;12.33;;;8.83;;
15293;SDS011;7748;52.474;13.454;2022-10-18T14:14:53;11.77;;;8.70;;
15293;SDS011;7748;52.474;13.454;2022-10-18T14:17:27;13.27;;;8.20;;
15293;SDS011;7748;52.474;13.454;2022-10-18T14:20:10;11.83;;;8.33;;
15293;SDS011;7748;52.474;13.454;2022-10-18T14:22:45;10.90;;;8.57;;
15293;SDS011;7748;52.474;13.454;2022-10-18T14:25:19;25.93;;;16.53;;
15293;SDS011;7748;52.474;13.454;2022-10-18T14:28:01;9.40;;;8.03;;
15293;SDS011;7748;52.474;13.454;2022-10-18T14:30:51;14.90;;;8.43;;
15293;SDS011;7748;52.474;13.454;2022-10-18T14:33:29;9.83;;;7.90;;
15293;SDS011;7748;52.474;13.454;2022-10-18T14:36:01;10.43;;;8.23;;
15293;SDS011;7748;52.474;13.454;2022-10-18T14:38:37;12.33;;;8.37;;
15293;SDS011;7748;52.474;13.454;2022-10-18T14:41:15;9.80;;;8.60;;
15293;SDS011;7748;52.474;13.454;2022-10-18T14:43:47;10.50;;;9.20;;
15293;SDS011;7748;52.474;13.454;2022-10-18T14:46:19;11.53;;;9.47;;
15293;SDS011;7748;52.474;13.454;2022-10-18T14:51:34;18.77;;;10.83;;
15293;SDS011;7748;52.474;13.454;2022-10-18T14:54:03;15.00;;;10.03;;
15293;SDS011;7748;52.474;13.454;2022-10-18T14:56:48;14.67;;;10.67;;
15293;SDS011;7748;52.474;13.454;2022-10-18T14:59:17;12.83;;;10.57;;
15293;SDS011;7748;52.474;13.454;2022-10-18T15:01:50;14.00;;;9.83;;
15293;SDS011;7748;52.474;13.454;2022-10-18T15:04:21;15.17;;;9.63;;
15293;SDS011;7748;52.474;13.454;2022-10-18T15:06:54;14.20;;;10.20;;
15293;SDS011;7748;52.474;13.454;2022-10-18T15:09:24;16.57;;;10.50;;
15293;SDS011;7748;52.474;13.454;2022-10-18T15:12:00;12.73;;;9.30;;
15293;SDS011;7748;52.474;13.454;2022-10-18T15:14:30;14.97;;;9.40;;
15293;SDS011;7748;52.474;13.454;2022-10-18T15:17:00;15.60;;;10.50;;
15293;SDS011;7748;52.474;13.454;2022-10-18T15:19:31;17.67;;;9.97;;
15293;SDS011;7748;52.474;13.454;2022-10-18T15:22:05;14.27;;;9.90;;
15293;SDS011;7748;52.474;13.454;2022-10-18T15:25:11;13.77;;;9.30;;
15293;SDS011;7748;52.474;13.454;2022-10-18T15:27:44;11.70;;;7.80;;
15293;SDS011;7748;52.474;13.454;2022-10-18T15:30:16;23.07;;;12.47;;
15293;SDS011;7748;52.474;13.454;2022-10-18T15:32:49;19.93;;;10.10;;
15293;SDS011;7748;52.474;13.454;2022-10-18T15:35:20;16.37;;;10.20;;